sensor_id;sensor_type;location;lat;lon;timestamp;temperature;humidity
11152;DHT22;5630;49.342;10.802;2024-01-30T00:02:14;2.50;99.90
11152;DHT22;5630;49.342;10.802;2024-01-30T00:04:40;2.50;99.90
11152;DHT22;5630;49.342;10.802;2024-01-30T00:07:05;2.50;99.90
11152;DHT22;5630;49.342;10.802;2024-01-30T00:09:31;2.50;99.90
11152;DHT22;5630;49.342;10.802;2024-01-30T00:11:56;2.50;99.90
11152;DHT22;5630;49.342;10.802;2024-01-30T00:14:22;2.50;99.90
11152;DHT22;5630;49.342;10.802;2024-01-30T00:16:48;2.40;99.90
11152;DHT22;5630;49.342;10.802;2024-01-30T00:19:14;2.40;99.90
11152;DHT22;5630;49.342;10.802;2024-01-30T00:21:39;2.40;99.90
11152;DHT22;5630;49.342;10.802;2024-01-30T00:24:05;2.40;99.90
11152;DHT22;5630;49.342;10.802;2024-01-30T00:26:31;2.40;99.90
11152;DHT22;5630;49.342;10.802;2024-01-30T00:28:56;2.40;99.90
11152;DHT22;5630;49.342;10.802;2024-01-30T00:31:22;2.30;99.90
11152;DHT22;5630;49.342;10.802;2024-01-30T00:33:47;2.30;99.90
11152;DHT22;5630;49.342;10.802;2024-01-30T00:36:13;2.30;99.90
11152;DHT22;5630;49.342;10.802;2024-01-30T00:38:39;2.30;99.90
11152;DHT22;5630;49.342;10.802;2024-01-30T00:41:07;2.20;99.90
11152;DHT22;5630;49.342;10.802;2024-01-30T00:43:33;2.20;99.90
11152;DHT22;5630;49.342;10.802;2024-01-30T00:45:59;2.20;99.90
11152;DHT22;5630;49.342;10.802;2024-01-30T00:48:25;2.10;99.90
11152;DHT22;5630;49.342;10.802;2024-01-30T00:50:50;2.10;99.90
11152;DHT22;5630;49.342;10.802;2024-01-30T00:53:16;2.10;99.90
11152;DHT22;5630;49.342;10.802;2024-01-30T00:55:41;2.10;99.90
11152;DHT22;5630;49.342;10.802;2024-01-30T00:58:07;2.10;99.90
11152;DHT22;5630;49.342;10.802;2024-01-30T01:00:33;2.10;99.90
11152;DHT22;5630;49.342;10.802;2024-01-30T01:02:59;2.10;99.90
11152;DHT22;5630;49.342;10.802;2024-01-30T01:05:25;2.10;99.90
11152;DHT22;5630;49.342;10.802;2024-01-30T01:07:50;2.10;99.90
11152;DHT22;5630;49.342;10.802;2024-01-30T01:10:17;2.10;99.90
11152;DHT22;5630;49.342;10.802;2024-01-30T01:12:43;2.20;99.90
11152;DHT22;5630;49.342;10.802;2024-01-30T01:15:09;2.20;99.90
11152;DHT22;5630;49.342;10.802;2024-01-30T01:17:35;2.20;99.90
11152;DHT22;5630;49.342;10.802;2024-01-30T01:20:02;2.20;99.90
11152;DHT22;5630;49.342;10.802;2024-01-30T01:22:28;2.10;99.90
11152;DHT22;5630;49.342;10.802;2024-01-30T01:24:54;2.10;99.90
11152;DHT22;5630;49.342;10.802;2024-01-30T01:27:20;2.10;99.90
11152;DHT22;5630;49.342;10.802;2024-01-30T01:29:46;2.10;99.90
11152;DHT22;5630;49.342;10.802;2024-01-30T01:32:12;2.10;99.90
11152;DHT22;5630;49.342;10.802;2024-01-30T01:34:37;2.00;99.90
11152;DHT22;5630;49.342;10.802;2024-01-30T01:37:03;2.10;99.90
11152;DHT22;5630;49.342;10.802;2024-01-30T01:39:28;2.10;99.90
11152;DHT22;5630;49.342;10.802;2024-01-30T01:41:54;2.10;99.90
11152;DHT22;5630;49.342;10.802;2024-01-30T01:44:19;2.10;99.90
11152;DHT22;5630;49.342;10.802;2024-01-30T01:46:45;2.20;99.90
11152;DHT22;5630;49.342;10.802;2024-01-30T01:49:11;2.10;99.90
11152;DHT22;5630;49.342;10.802;2024-01-30T01:51:37;2.10;99.90
11152;DHT22;5630;49.342;10.802;2024-01-30T01:54:05;2.00;99.90
11152;DHT22;5630;49.342;10.802;2024-01-30T01:56:31;2.00;99.90
11152;DHT22;5630;49.342;10.802;2024-01-30T01:59:03;2.00;99.90
11152;DHT22;5630;49.342;10.802;2024-01-30T02:01:30;2.10;99.90
11152;DHT22;5630;49.342;10.802;2024-01-30T02:03:56;2.00;99.90
11152;DHT22;5630;49.342;10.802;2024-01-30T02:06:22;2.00;99.90
11152;DHT22;5630;49.342;10.802;2024-01-30T02:08:48;2.00;99.90
11152;DHT22;5630;49.342;10.802;2024-01-30T02:11:14;2.00;99.90
11152;DHT22;5630;49.342;10.802;2024-01-30T02:13:42;2.00;99.90
11152;DHT22;5630;49.342;10.802;2024-01-30T02:16:07;2.10;99.90
11152;DHT22;5630;49.342;10.802;2024-01-30T02:18:33;2.00;99.90
11152;DHT22;5630;49.342;10.802;2024-01-30T02:23:30;2.10;99.90
11152;DHT22;5630;49.342;10.802;2024-01-30T02:25:56;2.10;99.90
11152;DHT22;5630;49.342;10.802;2024-01-30T02:28:22;2.20;99.90
11152;DHT22;5630;49.342;10.802;2024-01-30T02:30:47;2.10;99.90
11152;DHT22;5630;49.342;10.802;2024-01-30T02:33:13;2.10;99.90
11152;DHT22;5630;49.342;10.802;2024-01-30T02:35:39;2.10;99.90
11152;DHT22;5630;49.342;10.802;2024-01-30T02:38:04;2.20;99.90
11152;DHT22;5630;49.342;10.802;2024-01-30T02:40:31;2.20;99.90
11152;DHT22;5630;49.342;10.802;2024-01-30T02:42:58;2.20;99.90
11152;DHT22;5630;49.342;10.802;2024-01-30T02:45:24;2.20;99.90
11152;DHT22;5630;49.342;10.802;2024-01-30T02:47:50;2.20;99.90
11152;DHT22;5630;49.342;10.802;2024-01-30T02:50:15;2.20;99.90
11152;DHT22;5630;49.342;10.802;2024-01-30T02:52:41;2.30;99.90
11152;DHT22;5630;49.342;10.802;2024-01-30T02:55:09;2.20;99.90
11152;DHT22;5630;49.342;10.802;2024-01-30T02:57:35;2.20;99.90
11152;DHT22;5630;49.342;10.802;2024-01-30T03:00:00;2.30;99.90
11152;DHT22;5630;49.342;10.802;2024-01-30T03:02:26;2.20;99.90
11152;DHT22;5630;49.342;10.802;2024-01-30T03:04:51;2.20;99.90
11152;DHT22;5630;49.342;10.802;2024-01-30T03:07:17;2.20;99.90
11152;DHT22;5630;49.342;10.802;2024-01-30T03:09:43;2.20;99.90
11152;DHT22;5630;49.342;10.802;2024-01-30T03:12:09;2.20;99.90
11152;DHT22;5630;49.342;10.802;2024-01-30T03:14:35;2.20;99.90
11152;DHT22;5630;49.342;10.802;2024-01-30T03:17:00;2.20;99.90
11152;DHT22;5630;49.342;10.802;2024-01-30T03:19:26;2.30;99.90
11152;DHT22;5630;49.342;10.802;2024-01-30T03:21:51;2.20;99.90
11152;DHT22;5630;49.342;10.802;2024-01-30T03:24:17;2.20;99.90
11152;DHT22;5630;49.342;10.802;2024-01-30T03:26:43;2.20;99.90
11152;DHT22;5630;49.342;10.802;2024-01-30T03:29:09;2.20;99.90
11152;DHT22;5630;49.342;10.802;2024-01-30T03:31:34;2.20;99.90
11152;DHT22;5630;49.342;10.802;2024-01-30T03:34:01;2.20;99.90
11152;DHT22;5630;49.342;10.802;2024-01-30T03:36:26;2.10;99.90
11152;DHT22;5630;49.342;10.802;2024-01-30T03:38:52;2.10;99.90
11152;DHT22;5630;49.342;10.802;2024-01-30T03:41:17;2.10;99.90
11152;DHT22;5630;49.342;10.802;2024-01-30T03:43:43;2.10;99.90
11152;DHT22;5630;49.342;10.802;2024-01-30T03:46:09;2.10;99.90
11152;DHT22;5630;49.342;10.802;2024-01-30T03:48:34;2.00;99.90
11152;DHT22;5630;49.342;10.802;2024-01-30T03:51:00;2.00;99.90
11152;DHT22;5630;49.342;10.802;2024-01-30T03:53:25;2.00;99.90
11152;DHT22;5630;49.342;10.802;2024-01-30T03:55:51;2.00;99.90
11152;DHT22;5630;49.342;10.802;2024-01-30T03:58:17;2.00;99.90
11152;DHT22;5630;49.342;10.802;2024-01-30T04:00:42;2.00;99.90
11152;DHT22;5630;49.342;10.802;2024-01-30T04:03:08;2.00;99.90
11152;DHT22;5630;49.342;10.802;2024-01-30T04:05:33;2.00;99.90
11152;DHT22;5630;49.342;10.802;2024-01-30T04:07:59;2.00;99.90
11152;DHT22;5630;49.342;10.802;2024-01-30T04:10:25;2.00;99.90
11152;DHT22;5630;49.342;10.802;2024-01-30T04:12:51;2.00;99.90
11152;DHT22;5630;49.342;10.802;2024-01-30T04:15:17;2.00;99.90
11152;DHT22;5630;49.342;10.802;2024-01-30T04:17:43;2.00;99.90
11152;DHT22;5630;49.342;10.802;2024-01-30T04:20:13;2.00;99.90
11152;DHT22;5630;49.342;10.802;2024-01-30T04:22:40;2.00;99.90
11152;DHT22;5630;49.342;10.802;2024-01-30T04:25:05;2.00;99.90
11152;DHT22;5630;49.342;10.802;2024-01-30T04:27:31;2.00;99.90
11152;DHT22;5630;49.342;10.802;2024-01-30T04:29:56;2.00;99.90
11152;DHT22;5630;49.342;10.802;2024-01-30T04:32:22;2.10;99.90
11152;DHT22;5630;49.342;10.802;2024-01-30T04:34:47;2.10;99.90
11152;DHT22;5630;49.342;10.802;2024-01-30T04:37:13;2.10;99.90
11152;DHT22;5630;49.342;10.802;2024-01-30T04:39:39;2.10;99.90
11152;DHT22;5630;49.342;10.802;2024-01-30T04:42:05;2.10;99.90
11152;DHT22;5630;49.342;10.802;2024-01-30T04:44:30;2.10;99.90
11152;DHT22;5630;49.342;10.802;2024-01-30T04:46:56;2.20;99.90
11152;DHT22;5630;49.342;10.802;2024-01-30T04:49:24;2.20;99.90
11152;DHT22;5630;49.342;10.802;2024-01-30T04:51:49;2.20;99.90
11152;DHT22;5630;49.342;10.802;2024-01-30T04:54:15;2.20;99.90
11152;DHT22;5630;49.342;10.802;2024-01-30T04:56:40;2.20;99.90
11152;DHT22;5630;49.342;10.802;2024-01-30T04:59:06;2.20;99.90
11152;DHT22;5630;49.342;10.802;2024-01-30T05:01:33;2.30;99.90
11152;DHT22;5630;49.342;10.802;2024-01-30T05:03:59;2.30;99.90
11152;DHT22;5630;49.342;10.802;2024-01-30T05:06:28;2.30;99.90
11152;DHT22;5630;49.342;10.802;2024-01-30T05:08:54;2.30;99.90
11152;DHT22;5630;49.342;10.802;2024-01-30T05:11:19;2.30;99.90
11152;DHT22;5630;49.342;10.802;2024-01-30T05:13:45;2.30;99.90
11152;DHT22;5630;49.342;10.802;2024-01-30T05:16:10;2.30;99.90
11152;DHT22;5630;49.342;10.802;2024-01-30T05:18:36;2.30;99.90
11152;DHT22;5630;49.342;10.802;2024-01-30T05:21:02;2.30;99.90
11152;DHT22;5630;49.342;10.802;2024-01-30T05:23:28;2.30;99.90
11152;DHT22;5630;49.342;10.802;2024-01-30T05:25:54;2.30;99.90
11152;DHT22;5630;49.342;10.802;2024-01-30T05:28:20;2.30;99.90
11152;DHT22;5630;49.342;10.802;2024-01-30T05:30:45;2.40;99.90
11152;DHT22;5630;49.342;10.802;2024-01-30T05:33:11;2.40;99.90
11152;DHT22;5630;49.342;10.802;2024-01-30T05:35:37;2.40;99.90
11152;DHT22;5630;49.342;10.802;2024-01-30T05:38:03;2.40;99.90
11152;DHT22;5630;49.342;10.802;2024-01-30T05:40:29;2.40;99.90
11152;DHT22;5630;49.342;10.802;2024-01-30T05:42:54;2.40;99.90
11152;DHT22;5630;49.342;10.802;2024-01-30T05:45:20;2.50;99.90
11152;DHT22;5630;49.342;10.802;2024-01-30T05:47:45;2.50;99.90
11152;DHT22;5630;49.342;10.802;2024-01-30T05:50:11;2.40;99.90
11152;DHT22;5630;49.342;10.802;2024-01-30T05:52:36;2.40;99.90
11152;DHT22;5630;49.342;10.802;2024-01-30T05:55:02;2.40;99.90
11152;DHT22;5630;49.342;10.802;2024-01-30T05:57:28;2.50;99.90
11152;DHT22;5630;49.342;10.802;2024-01-30T05:59:54;2.30;99.90
11152;DHT22;5630;49.342;10.802;2024-01-30T06:02:19;2.30;99.90
11152;DHT22;5630;49.342;10.802;2024-01-30T06:04:45;2.30;99.90
11152;DHT22;5630;49.342;10.802;2024-01-30T06:07:10;2.30;99.90
11152;DHT22;5630;49.342;10.802;2024-01-30T06:09:36;2.30;99.90
11152;DHT22;5630;49.342;10.802;2024-01-30T06:12:01;2.30;99.90
11152;DHT22;5630;49.342;10.802;2024-01-30T06:14:27;2.50;99.90
11152;DHT22;5630;49.342;10.802;2024-01-30T06:16:53;2.50;99.90
11152;DHT22;5630;49.342;10.802;2024-01-30T06:19:18;2.50;99.90
11152;DHT22;5630;49.342;10.802;2024-01-30T06:21:44;2.50;99.90
11152;DHT22;5630;49.342;10.802;2024-01-30T06:24:10;2.50;99.90
11152;DHT22;5630;49.342;10.802;2024-01-30T06:26:36;2.50;99.90
11152;DHT22;5630;49.342;10.802;2024-01-30T06:29:02;2.50;99.90
11152;DHT22;5630;49.342;10.802;2024-01-30T06:31:27;2.60;99.90
11152;DHT22;5630;49.342;10.802;2024-01-30T06:33:53;2.60;99.90
11152;DHT22;5630;49.342;10.802;2024-01-30T06:36:18;2.70;99.90
11152;DHT22;5630;49.342;10.802;2024-01-30T06:38:44;2.70;99.90
11152;DHT22;5630;49.342;10.802;2024-01-30T06:41:10;2.60;99.90
11152;DHT22;5630;49.342;10.802;2024-01-30T06:43:35;2.60;99.90
11152;DHT22;5630;49.342;10.802;2024-01-30T06:46:01;2.60;99.90
11152;DHT22;5630;49.342;10.802;2024-01-30T06:48:26;2.60;99.90
11152;DHT22;5630;49.342;10.802;2024-01-30T06:50:57;2.60;99.90
11152;DHT22;5630;49.342;10.802;2024-01-30T06:53:23;2.60;99.90
11152;DHT22;5630;49.342;10.802;2024-01-30T06:55:49;2.50;99.90
11152;DHT22;5630;49.342;10.802;2024-01-30T06:58:14;2.50;99.90
11152;DHT22;5630;49.342;10.802;2024-01-30T07:00:40;2.50;99.90
11152;DHT22;5630;49.342;10.802;2024-01-30T07:03:05;2.40;99.90
11152;DHT22;5630;49.342;10.802;2024-01-30T07:05:31;2.50;99.90
11152;DHT22;5630;49.342;10.802;2024-01-30T07:07:57;2.40;99.90
11152;DHT22;5630;49.342;10.802;2024-01-30T07:10:23;2.30;99.90
11152;DHT22;5630;49.342;10.802;2024-01-30T07:12:48;2.40;99.90
11152;DHT22;5630;49.342;10.802;2024-01-30T07:15:14;2.30;99.90
11152;DHT22;5630;49.342;10.802;2024-01-30T07:17:42;2.40;99.90
11152;DHT22;5630;49.342;10.802;2024-01-30T07:20:08;2.40;99.90
11152;DHT22;5630;49.342;10.802;2024-01-30T07:22:34;2.40;99.90
11152;DHT22;5630;49.342;10.802;2024-01-30T07:25:00;2.40;99.90
11152;DHT22;5630;49.342;10.802;2024-01-30T07:27:26;2.50;99.90
11152;DHT22;5630;49.342;10.802;2024-01-30T07:29:51;2.50;99.90
11152;DHT22;5630;49.342;10.802;2024-01-30T07:32:17;2.60;99.90
11152;DHT22;5630;49.342;10.802;2024-01-30T07:34:44;2.60;99.90
11152;DHT22;5630;49.342;10.802;2024-01-30T07:37:09;2.70;99.90
11152;DHT22;5630;49.342;10.802;2024-01-30T07:39:36;4.50;99.90
11152;DHT22;5630;49.342;10.802;2024-01-30T07:42:02;6.20;99.90
11152;DHT22;5630;49.342;10.802;2024-01-30T07:44:28;7.50;99.90
11152;DHT22;5630;49.342;10.802;2024-01-30T07:46:53;8.30;99.90
11152;DHT22;5630;49.342;10.802;2024-01-30T07:49:20;8.80;99.90
11152;DHT22;5630;49.342;10.802;2024-01-30T07:51:45;8.60;99.90
11152;DHT22;5630;49.342;10.802;2024-01-30T07:54:11;8.10;99.90
11152;DHT22;5630;49.342;10.802;2024-01-30T07:56:40;7.60;99.90
11152;DHT22;5630;49.342;10.802;2024-01-30T07:59:05;7.00;99.90
11152;DHT22;5630;49.342;10.802;2024-01-30T08:01:31;6.50;99.90
11152;DHT22;5630;49.342;10.802;2024-01-30T08:03:56;6.10;99.90
11152;DHT22;5630;49.342;10.802;2024-01-30T08:06:22;5.70;99.90
11152;DHT22;5630;49.342;10.802;2024-01-30T08:08:48;5.40;99.90
11152;DHT22;5630;49.342;10.802;2024-01-30T08:11:13;5.20;99.90
11152;DHT22;5630;49.342;10.802;2024-01-30T08:13:39;5.10;99.90
11152;DHT22;5630;49.342;10.802;2024-01-30T08:16:05;4.90;99.90
11152;DHT22;5630;49.342;10.802;2024-01-30T08:18:30;4.90;99.90
11152;DHT22;5630;49.342;10.802;2024-01-30T08:20:56;4.90;99.90
11152;DHT22;5630;49.342;10.802;2024-01-30T08:23:21;4.80;99.90
11152;DHT22;5630;49.342;10.802;2024-01-30T08:25:47;4.80;99.90
11152;DHT22;5630;49.342;10.802;2024-01-30T08:28:12;4.70;99.90
11152;DHT22;5630;49.342;10.802;2024-01-30T08:30:38;4.70;99.90
11152;DHT22;5630;49.342;10.802;2024-01-30T08:33:05;4.70;99.90
11152;DHT22;5630;49.342;10.802;2024-01-30T08:35:30;4.70;99.90
11152;DHT22;5630;49.342;10.802;2024-01-30T08:37:59;5.80;99.90
11152;DHT22;5630;49.342;10.802;2024-01-30T08:40:24;6.60;99.90
11152;DHT22;5630;49.342;10.802;2024-01-30T08:42:50;7.20;99.90
11152;DHT22;5630;49.342;10.802;2024-01-30T08:45:16;7.70;99.90
11152;DHT22;5630;49.342;10.802;2024-01-30T08:47:41;8.10;99.90
11152;DHT22;5630;49.342;10.802;2024-01-30T08:50:07;8.70;99.90
11152;DHT22;5630;49.342;10.802;2024-01-30T08:52:33;8.70;99.90
11152;DHT22;5630;49.342;10.802;2024-01-30T08:54:59;8.40;99.90
11152;DHT22;5630;49.342;10.802;2024-01-30T08:57:25;8.10;99.90
11152;DHT22;5630;49.342;10.802;2024-01-30T08:59:54;7.70;99.90
11152;DHT22;5630;49.342;10.802;2024-01-30T09:02:19;7.90;99.90
11152;DHT22;5630;49.342;10.802;2024-01-30T09:04:45;7.60;99.90
11152;DHT22;5630;49.342;10.802;2024-01-30T09:07:11;7.20;99.90
11152;DHT22;5630;49.342;10.802;2024-01-30T09:09:38;7.00;99.90
11152;DHT22;5630;49.342;10.802;2024-01-30T09:12:05;6.90;99.90
11152;DHT22;5630;49.342;10.802;2024-01-30T09:14:33;6.90;99.90
11152;DHT22;5630;49.342;10.802;2024-01-30T09:16:59;6.90;99.90
11152;DHT22;5630;49.342;10.802;2024-01-30T09:19:25;7.00;99.90
11152;DHT22;5630;49.342;10.802;2024-01-30T09:21:50;6.90;99.90
11152;DHT22;5630;49.342;10.802;2024-01-30T09:24:16;6.90;99.90
11152;DHT22;5630;49.342;10.802;2024-01-30T09:26:41;6.90;99.90
11152;DHT22;5630;49.342;10.802;2024-01-30T09:29:07;7.00;99.90
11152;DHT22;5630;49.342;10.802;2024-01-30T09:31:32;7.00;99.90
11152;DHT22;5630;49.342;10.802;2024-01-30T09:33:58;7.00;99.90
11152;DHT22;5630;49.342;10.802;2024-01-30T09:36:24;7.00;99.90
11152;DHT22;5630;49.342;10.802;2024-01-30T09:38:49;7.00;99.90
11152;DHT22;5630;49.342;10.802;2024-01-30T09:41:15;7.00;99.90
11152;DHT22;5630;49.342;10.802;2024-01-30T09:43:42;7.00;99.90
11152;DHT22;5630;49.342;10.802;2024-01-30T09:46:15;7.00;99.90
11152;DHT22;5630;49.342;10.802;2024-01-30T09:48:42;7.00;99.90
11152;DHT22;5630;49.342;10.802;2024-01-30T09:51:09;7.10;99.90
11152;DHT22;5630;49.342;10.802;2024-01-30T09:53:35;7.00;99.90
11152;DHT22;5630;49.342;10.802;2024-01-30T09:56:02;7.10;99.90
11152;DHT22;5630;49.342;10.802;2024-01-30T09:58:28;7.10;99.90
11152;DHT22;5630;49.342;10.802;2024-01-30T10:00:54;7.10;99.90
11152;DHT22;5630;49.342;10.802;2024-01-30T10:03:19;7.10;99.90
11152;DHT22;5630;49.342;10.802;2024-01-30T10:05:51;7.10;99.90
11152;DHT22;5630;49.342;10.802;2024-01-30T10:08:19;7.10;99.90
11152;DHT22;5630;49.342;10.802;2024-01-30T10:10:48;7.10;99.90
11152;DHT22;5630;49.342;10.802;2024-01-30T10:13:15;7.20;99.90
11152;DHT22;5630;49.342;10.802;2024-01-30T10:15:41;7.20;99.90
11152;DHT22;5630;49.342;10.802;2024-01-30T10:18:08;7.30;99.90
11152;DHT22;5630;49.342;10.802;2024-01-30T10:23:01;7.40;99.90
11152;DHT22;5630;49.342;10.802;2024-01-30T10:25:29;7.50;99.90
11152;DHT22;5630;49.342;10.802;2024-01-30T10:27:54;7.50;99.90
11152;DHT22;5630;49.342;10.802;2024-01-30T10:30:21;7.60;99.90
11152;DHT22;5630;49.342;10.802;2024-01-30T10:32:47;7.60;99.90
11152;DHT22;5630;49.342;10.802;2024-01-30T10:35:13;7.70;99.90
11152;DHT22;5630;49.342;10.802;2024-01-30T10:37:38;7.80;99.90
11152;DHT22;5630;49.342;10.802;2024-01-30T10:40:04;7.80;99.90
11152;DHT22;5630;49.342;10.802;2024-01-30T10:42:32;7.80;99.90
11152;DHT22;5630;49.342;10.802;2024-01-30T10:45:12;7.80;99.90
11152;DHT22;5630;49.342;10.802;2024-01-30T10:47:40;7.90;99.90
11152;DHT22;5630;49.342;10.802;2024-01-30T10:50:08;7.80;99.90
11152;DHT22;5630;49.342;10.802;2024-01-30T10:52:34;7.90;99.90
11152;DHT22;5630;49.342;10.802;2024-01-30T10:55:00;8.00;99.90
11152;DHT22;5630;49.342;10.802;2024-01-30T10:57:26;8.10;99.90
11152;DHT22;5630;49.342;10.802;2024-01-30T10:59:55;8.30;99.90
11152;DHT22;5630;49.342;10.802;2024-01-30T11:02:22;8.30;99.90
11152;DHT22;5630;49.342;10.802;2024-01-30T11:04:49;8.40;99.90
11152;DHT22;5630;49.342;10.802;2024-01-30T11:07:23;8.50;99.90
11152;DHT22;5630;49.342;10.802;2024-01-30T11:09:53;8.70;99.90
11152;DHT22;5630;49.342;10.802;2024-01-30T11:12:23;8.80;99.90
11152;DHT22;5630;49.342;10.802;2024-01-30T11:14:49;8.80;99.90
11152;DHT22;5630;49.342;10.802;2024-01-30T11:17:15;8.90;99.90
11152;DHT22;5630;49.342;10.802;2024-01-30T11:19:41;9.00;99.90
11152;DHT22;5630;49.342;10.802;2024-01-30T11:22:07;9.00;99.90
11152;DHT22;5630;49.342;10.802;2024-01-30T11:24:40;9.10;99.90
11152;DHT22;5630;49.342;10.802;2024-01-30T11:27:09;9.10;99.90
11152;DHT22;5630;49.342;10.802;2024-01-30T11:29:35;9.10;99.90
11152;DHT22;5630;49.342;10.802;2024-01-30T11:32:02;9.10;99.90
11152;DHT22;5630;49.342;10.802;2024-01-30T11:34:28;9.10;99.90
11152;DHT22;5630;49.342;10.802;2024-01-30T11:36:58;9.10;99.90
11152;DHT22;5630;49.342;10.802;2024-01-30T11:39:25;9.10;99.90
11152;DHT22;5630;49.342;10.802;2024-01-30T11:41:52;9.10;99.90
11152;DHT22;5630;49.342;10.802;2024-01-30T11:44:22;9.10;99.90
11152;DHT22;5630;49.342;10.802;2024-01-30T11:46:48;9.20;99.90
11152;DHT22;5630;49.342;10.802;2024-01-30T11:49:14;9.20;99.90
11152;DHT22;5630;49.342;10.802;2024-01-30T11:51:41;9.20;99.90
11152;DHT22;5630;49.342;10.802;2024-01-30T11:54:07;9.20;99.90
11152;DHT22;5630;49.342;10.802;2024-01-30T11:56:33;9.30;99.90
11152;DHT22;5630;49.342;10.802;2024-01-30T11:58:58;9.30;99.90
11152;DHT22;5630;49.342;10.802;2024-01-30T12:01:26;9.40;99.90
11152;DHT22;5630;49.342;10.802;2024-01-30T12:03:52;9.50;99.90
11152;DHT22;5630;49.342;10.802;2024-01-30T12:06:17;9.50;99.90
11152;DHT22;5630;49.342;10.802;2024-01-30T12:08:43;9.60;99.90
11152;DHT22;5630;49.342;10.802;2024-01-30T12:11:19;9.60;99.90
11152;DHT22;5630;49.342;10.802;2024-01-30T12:13:45;9.60;99.90
11152;DHT22;5630;49.342;10.802;2024-01-30T12:16:10;9.70;99.90
11152;DHT22;5630;49.342;10.802;2024-01-30T12:18:36;9.70;99.90
11152;DHT22;5630;49.342;10.802;2024-01-30T12:21:02;9.70;99.90
11152;DHT22;5630;49.342;10.802;2024-01-30T12:23:28;9.80;99.90
11152;DHT22;5630;49.342;10.802;2024-01-30T12:25:53;9.70;99.90
11152;DHT22;5630;49.342;10.802;2024-01-30T12:28:20;9.80;99.90
11152;DHT22;5630;49.342;10.802;2024-01-30T12:30:46;9.80;99.90
11152;DHT22;5630;49.342;10.802;2024-01-30T12:33:18;9.80;99.90
11152;DHT22;5630;49.342;10.802;2024-01-30T12:35:47;9.90;99.90
11152;DHT22;5630;49.342;10.802;2024-01-30T12:38:16;9.90;99.90
11152;DHT22;5630;49.342;10.802;2024-01-30T12:40:42;9.80;99.90
11152;DHT22;5630;49.342;10.802;2024-01-30T12:43:07;9.90;99.90
11152;DHT22;5630;49.342;10.802;2024-01-30T12:45:33;9.90;99.90
11152;DHT22;5630;49.342;10.802;2024-01-30T12:47:59;9.90;99.90
11152;DHT22;5630;49.342;10.802;2024-01-30T12:50:24;10.00;99.90
11152;DHT22;5630;49.342;10.802;2024-01-30T12:52:50;10.00;99.90
11152;DHT22;5630;49.342;10.802;2024-01-30T12:55:16;10.00;99.90
11152;DHT22;5630;49.342;10.802;2024-01-30T12:57:41;10.00;99.90
11152;DHT22;5630;49.342;10.802;2024-01-30T13:00:08;10.10;99.90
11152;DHT22;5630;49.342;10.802;2024-01-30T13:02:34;10.20;99.90
11152;DHT22;5630;49.342;10.802;2024-01-30T13:05:03;10.20;99.90
11152;DHT22;5630;49.342;10.802;2024-01-30T13:07:29;10.20;99.90
11152;DHT22;5630;49.342;10.802;2024-01-30T13:09:54;10.20;99.90
11152;DHT22;5630;49.342;10.802;2024-01-30T13:12:20;10.30;99.90
11152;DHT22;5630;49.342;10.802;2024-01-30T13:14:45;10.30;99.90
11152;DHT22;5630;49.342;10.802;2024-01-30T13:17:11;10.30;99.90
11152;DHT22;5630;49.342;10.802;2024-01-30T13:19:36;10.40;99.90
11152;DHT22;5630;49.342;10.802;2024-01-30T13:22:02;10.40;99.90
11152;DHT22;5630;49.342;10.802;2024-01-30T13:24:27;10.40;99.90
11152;DHT22;5630;49.342;10.802;2024-01-30T13:26:53;10.40;99.90
11152;DHT22;5630;49.342;10.802;2024-01-30T13:29:19;10.50;99.90
11152;DHT22;5630;49.342;10.802;2024-01-30T13:31:44;10.50;99.90
11152;DHT22;5630;49.342;10.802;2024-01-30T13:34:12;10.50;99.90
11152;DHT22;5630;49.342;10.802;2024-01-30T13:36:39;10.50;99.90
11152;DHT22;5630;49.342;10.802;2024-01-30T13:39:04;10.50;99.90
11152;DHT22;5630;49.342;10.802;2024-01-30T13:41:33;10.50;99.90
11152;DHT22;5630;49.342;10.802;2024-01-30T13:43:59;10.50;99.90
11152;DHT22;5630;49.342;10.802;2024-01-30T13:46:24;10.50;99.90
11152;DHT22;5630;49.342;10.802;2024-01-30T13:48:52;10.60;99.90
11152;DHT22;5630;49.342;10.802;2024-01-30T13:51:18;10.60;99.90
11152;DHT22;5630;49.342;10.802;2024-01-30T13:53:43;10.80;99.90
11152;DHT22;5630;49.342;10.802;2024-01-30T13:56:09;11.30;99.90
11152;DHT22;5630;49.342;10.802;2024-01-30T13:58:34;11.30;99.90
11152;DHT22;5630;49.342;10.802;2024-01-30T14:01:01;11.20;99.90
11152;DHT22;5630;49.342;10.802;2024-01-30T14:03:27;11.10;99.90
11152;DHT22;5630;49.342;10.802;2024-01-30T14:05:53;11.00;99.90
11152;DHT22;5630;49.342;10.802;2024-01-30T14:08:19;10.80;99.90
11152;DHT22;5630;49.342;10.802;2024-01-30T14:10:47;10.70;99.90
11152;DHT22;5630;49.342;10.802;2024-01-30T14:13:12;10.70;99.90
11152;DHT22;5630;49.342;10.802;2024-01-30T14:15:38;10.60;99.90
11152;DHT22;5630;49.342;10.802;2024-01-30T14:18:04;10.50;99.90
11152;DHT22;5630;49.342;10.802;2024-01-30T14:20:30;10.50;99.90
11152;DHT22;5630;49.342;10.802;2024-01-30T14:22:56;10.50;99.90
11152;DHT22;5630;49.342;10.802;2024-01-30T14:25:22;10.40;99.90
11152;DHT22;5630;49.342;10.802;2024-01-30T14:27:48;10.40;99.90
11152;DHT22;5630;49.342;10.802;2024-01-30T14:30:13;10.50;99.90
11152;DHT22;5630;49.342;10.802;2024-01-30T14:32:39;10.40;99.90
11152;DHT22;5630;49.342;10.802;2024-01-30T14:35:05;10.40;99.90
11152;DHT22;5630;49.342;10.802;2024-01-30T14:37:31;10.40;99.90
11152;DHT22;5630;49.342;10.802;2024-01-30T14:39:57;10.40;99.90
11152;DHT22;5630;49.342;10.802;2024-01-30T14:42:22;10.40;99.90
11152;DHT22;5630;49.342;10.802;2024-01-30T14:44:48;10.40;99.90
11152;DHT22;5630;49.342;10.802;2024-01-30T14:47:14;10.40;99.90
11152;DHT22;5630;49.342;10.802;2024-01-30T14:49:40;10.40;99.90
11152;DHT22;5630;49.342;10.802;2024-01-30T14:52:05;10.30;99.90
11152;DHT22;5630;49.342;10.802;2024-01-30T14:54:31;10.30;99.90
11152;DHT22;5630;49.342;10.802;2024-01-30T14:56:57;10.30;99.90
11152;DHT22;5630;49.342;10.802;2024-01-30T14:59:24;10.30;99.90
11152;DHT22;5630;49.342;10.802;2024-01-30T15:01:50;10.30;99.90
11152;DHT22;5630;49.342;10.802;2024-01-30T15:04:15;10.20;99.90
11152;DHT22;5630;49.342;10.802;2024-01-30T15:06:41;10.20;99.90
11152;DHT22;5630;49.342;10.802;2024-01-30T15:09:11;10.10;99.90
11152;DHT22;5630;49.342;10.802;2024-01-30T15:11:40;10.10;99.90
11152;DHT22;5630;49.342;10.802;2024-01-30T15:14:06;10.10;99.90
11152;DHT22;5630;49.342;10.802;2024-01-30T15:16:32;10.10;99.90
11152;DHT22;5630;49.342;10.802;2024-01-30T15:18:57;10.00;99.90
11152;DHT22;5630;49.342;10.802;2024-01-30T15:21:23;10.00;99.90
11152;DHT22;5630;49.342;10.802;2024-01-30T15:23:48;10.00;99.90
11152;DHT22;5630;49.342;10.802;2024-01-30T15:26:14;9.90;99.90
11152;DHT22;5630;49.342;10.802;2024-01-30T15:28:40;9.90;99.90
11152;DHT22;5630;49.342;10.802;2024-01-30T15:31:06;9.80;99.90
11152;DHT22;5630;49.342;10.802;2024-01-30T15:33:33;9.80;99.90
11152;DHT22;5630;49.342;10.802;2024-01-30T15:35:59;9.70;99.90
11152;DHT22;5630;49.342;10.802;2024-01-30T15:38:25;9.70;99.90
11152;DHT22;5630;49.342;10.802;2024-01-30T15:40:51;9.70;99.90